createdAt,value
2023-03-16T00:02:12.751Z,100766.00
2023-03-16T00:04:40.333Z,100759.00
2023-03-16T00:07:09.929Z,100760.00
2023-03-16T00:09:40.206Z,100754.00
2023-03-16T00:12:14.881Z,100755.00
2023-03-16T00:14:43.568Z,100762.00
2023-03-16T00:17:18.067Z,100765.00
2023-03-16T00:19:46.581Z,100766.00
2023-03-16T00:22:14.909Z,100764.00
2023-03-16T00:24:43.454Z,100775.00
2023-03-16T00:27:13.994Z,100763.00
2023-03-16T00:29:46.482Z,100770.00
2023-03-16T00:32:16.463Z,100768.00
2023-03-16T00:34:44.376Z,100767.00
2023-03-16T00:37:13.462Z,100783.00
2023-03-16T00:39:41.253Z,100755.00
2023-03-16T00:42:09.069Z,100764.00
2023-03-16T00:44:36.494Z,100782.00
2023-03-16T00:47:04.123Z,100785.00
2023-03-16T00:49:34.184Z,100780.00
2023-03-16T00:52:01.725Z,100783.00
2023-03-16T00:54:29.198Z,100781.00
2023-03-16T00:56:56.432Z,100781.00
2023-03-16T00:59:25.501Z,100786.00
2023-03-16T01:01:52.991Z,100790.00
2023-03-16T01:04:20.691Z,100785.00
2023-03-16T01:06:49.421Z,100790.00
2023-03-16T01:09:17.470Z,100795.00
2023-03-16T01:11:44.785Z,100802.00
2023-03-16T01:14:12.439Z,100802.00
2023-03-16T01:16:39.762Z,100803.00
2023-03-16T01:19:07.063Z,100809.00
2023-03-16T01:21:36.251Z,100808.00
2023-03-16T01:24:07.298Z,100809.00
2023-03-16T01:26:34.909Z,100811.00
2023-03-16T01:29:02.194Z,100810.00
2023-03-16T01:31:29.490Z,100814.00
2023-03-16T01:33:56.973Z,100812.00
2023-03-16T01:36:24.323Z,100805.00
2023-03-16T01:38:51.612Z,100806.00
2023-03-16T01:41:19.651Z,100814.00
2023-03-16T01:43:46.973Z,100799.00
2023-03-16T01:46:21.512Z,100805.00
2023-03-16T01:49:06.333Z,100809.00
2023-03-16T01:51:37.538Z,100812.00
2023-03-16T01:54:10.169Z,100807.00
2023-03-16T01:56:43.362Z,100801.00
2023-03-16T01:59:15.691Z,100805.00
2023-03-16T02:01:43.586Z,100807.00
2023-03-16T02:04:26.682Z,100810.00
2023-03-16T02:06:56.256Z,100801.00
2023-03-16T02:09:25.060Z,100797.00
2023-03-16T02:11:54.863Z,100794.00
2023-03-16T02:14:24.155Z,100799.00
2023-03-16T02:16:52.564Z,100797.00
2023-03-16T02:19:27.213Z,100799.00
2023-03-16T02:22:01.760Z,100797.00
2023-03-16T02:24:29.235Z,100797.00
2023-03-16T02:27:00.943Z,100800.00
2023-03-16T02:29:56.716Z,100805.00
2023-03-16T02:32:27.208Z,100799.00
2023-03-16T02:34:55.199Z,100803.00
2023-03-16T02:37:22.741Z,100807.00
2023-03-16T02:39:50.022Z,100801.00
2023-03-16T02:42:21.086Z,100810.00
2023-03-16T02:44:54.584Z,100808.00
2023-03-16T02:47:29.319Z,100808.00
2023-03-16T02:49:56.985Z,100823.00
2023-03-16T02:52:24.308Z,100816.00
2023-03-16T02:54:51.577Z,100818.00
2023-03-16T02:57:18.879Z,100808.00
2023-03-16T02:59:46.134Z,100807.00
2023-03-16T03:02:13.407Z,100808.00
2023-03-16T03:04:41.536Z,100808.00
2023-03-16T03:07:08.925Z,100803.00
2023-03-16T03:09:36.190Z,100803.00
2023-03-16T03:12:04.181Z,100804.00
2023-03-16T03:14:31.457Z,100801.00
2023-03-16T03:16:58.756Z,100812.00
2023-03-16T03:19:26.104Z,100809.00
2023-03-16T03:21:56.085Z,100815.00
2023-03-16T03:24:24.014Z,100809.00
2023-03-16T03:26:51.742Z,100809.00
2023-03-16T03:29:19.165Z,100809.00
2023-03-16T03:31:46.745Z,100816.00
2023-03-16T03:34:14.071Z,100813.00
2023-03-16T03:36:41.599Z,100819.00
2023-03-16T03:39:09.568Z,100809.00
2023-03-16T03:41:36.856Z,100823.00
2023-03-16T03:44:05.129Z,100826.00
2023-03-16T03:46:32.528Z,100836.00
2023-03-16T03:49:03.100Z,100835.00
2023-03-16T03:51:30.763Z,100826.00
2023-03-16T03:53:58.103Z,100834.00
2023-03-16T03:56:26.592Z,100832.00
2023-03-16T03:58:53.843Z,100820.00
2023-03-16T04:01:21.234Z,100828.00
2023-03-16T04:03:48.636Z,100827.00
2023-03-16T04:06:16.165Z,100839.00
2023-03-16T04:08:43.540Z,100828.00
2023-03-16T04:11:11.435Z,100825.00
2023-03-16T04:13:39.414Z,100835.00
2023-03-16T04:16:07.158Z,100839.00
2023-03-16T04:18:38.452Z,100831.00
2023-03-16T04:21:06.916Z,100831.00
2023-03-16T04:23:34.727Z,100828.00
2023-03-16T04:26:03.145Z,100837.00
2023-03-16T04:28:32.025Z,100833.00
2023-03-16T04:31:04.650Z,100827.00
2023-03-16T04:33:32.184Z,100837.00
2023-03-16T04:36:01.773Z,100826.00
2023-03-16T04:38:29.216Z,100823.00
2023-03-16T04:40:56.566Z,100823.00
2023-03-16T04:43:23.807Z,100825.00
2023-03-16T04:45:51.137Z,100825.00
2023-03-16T04:48:19.185Z,100826.00
2023-03-16T04:50:49.768Z,100825.00
2023-03-16T04:53:17.075Z,100829.00
2023-03-16T04:55:45.301Z,100831.00
2023-03-16T04:58:13.457Z,100825.00
2023-03-16T05:00:41.082Z,100828.00
2023-03-16T05:03:09.653Z,100819.00
2023-03-16T05:05:38.149Z,100825.00
2023-03-16T05:08:06.262Z,100838.00
2023-03-16T05:10:34.466Z,100833.00
2023-03-16T05:13:01.895Z,100828.00
2023-03-16T05:15:29.122Z,100820.00
2023-03-16T05:17:56.431Z,100822.00
2023-03-16T05:20:24.309Z,100826.00
2023-03-16T05:22:52.726Z,100834.00
2023-03-16T05:25:20.964Z,100844.00
2023-03-16T05:27:50.328Z,100833.00
2023-03-16T05:30:19.308Z,100834.00
2023-03-16T05:32:47.048Z,100838.00
2023-03-16T05:35:14.617Z,100844.00
2023-03-16T05:37:42.373Z,100839.00
2023-03-16T05:40:16.469Z,100844.00
2023-03-16T05:42:44.732Z,100847.00
2023-03-16T05:45:13.952Z,100838.00
2023-03-16T05:47:42.974Z,100858.00
2023-03-16T05:50:11.638Z,100849.00
2023-03-16T05:52:39.280Z,100848.00
2023-03-16T05:55:09.095Z,100857.00
2023-03-16T05:57:37.517Z,100851.00
2023-03-16T06:00:12.504Z,100859.00
2023-03-16T06:02:39.840Z,100860.00
2023-03-16T06:05:07.840Z,100859.00
2023-03-16T06:07:35.393Z,100870.00
2023-03-16T06:10:02.915Z,100869.00
2023-03-16T06:12:30.214Z,100871.00
2023-03-16T06:14:58.170Z,100873.00
2023-03-16T06:17:25.733Z,100878.00
2023-03-16T06:19:53.110Z,100874.00
2023-03-16T06:22:20.417Z,100882.00
2023-03-16T06:24:48.066Z,100889.00
2023-03-16T06:27:15.322Z,100877.00
2023-03-16T06:29:42.647Z,100876.00
2023-03-16T06:32:10.840Z,100871.00
2023-03-16T06:34:38.456Z,100880.00
2023-03-16T06:37:06.031Z,100886.00
2023-03-16T06:39:33.279Z,100882.00
2023-03-16T06:42:00.593Z,100887.00
2023-03-16T06:44:27.888Z,100879.00
2023-03-16T06:46:55.654Z,100889.00
2023-03-16T06:49:23.536Z,100884.00
2023-03-16T06:51:50.799Z,100880.00
2023-03-16T06:54:18.030Z,100883.00
2023-03-16T06:56:46.377Z,100886.00
2023-03-16T06:59:13.792Z,100889.00
2023-03-16T07:01:41.506Z,100886.00
2023-03-16T07:04:09.099Z,100887.00
2023-03-16T07:06:37.079Z,100883.00
2023-03-16T07:09:04.903Z,100886.00
2023-03-16T07:11:32.279Z,100895.00
2023-03-16T07:13:59.696Z,100889.00
2023-03-16T07:16:27.106Z,100889.00
2023-03-16T07:18:54.449Z,100892.00
2023-03-16T07:21:21.978Z,100901.00
2023-03-16T07:23:50.913Z,100907.00
2023-03-16T07:26:18.280Z,100902.00
2023-03-16T07:28:45.586Z,100896.00
2023-03-16T07:31:13.998Z,100901.00
2023-03-16T07:33:41.365Z,100907.00
2023-03-16T07:36:09.876Z,100891.00
2023-03-16T07:38:37.245Z,100885.00
2023-03-16T07:41:05.561Z,100891.00
2023-03-16T07:43:32.876Z,100889.00
2023-03-16T07:46:00.756Z,100885.00
2023-03-16T07:48:28.250Z,100893.00
2023-03-16T07:50:55.541Z,100900.00
2023-03-16T07:53:22.893Z,100911.00
2023-03-16T07:55:50.125Z,100906.00
2023-03-16T07:58:18.436Z,100911.00
2023-03-16T08:00:45.707Z,100903.00
2023-03-16T08:03:13.539Z,100913.00
2023-03-16T08:05:40.937Z,100910.00
2023-03-16T08:08:09.029Z,100912.00
2023-03-16T08:10:36.659Z,100919.00
2023-03-16T08:13:04.379Z,100913.00
2023-03-16T08:15:33.180Z,100908.00
2023-03-16T08:18:02.553Z,100917.00
2023-03-16T08:20:30.110Z,100915.00
2023-03-16T08:22:57.592Z,100913.00
2023-03-16T08:25:24.891Z,100930.00
2023-03-16T08:27:52.623Z,100919.00
2023-03-16T08:30:21.842Z,100924.00
2023-03-16T08:32:49.901Z,100917.00
2023-03-16T08:35:17.172Z,100929.00
2023-03-16T08:37:45.576Z,100931.00
2023-03-16T08:40:15.306Z,100927.00
2023-03-16T08:42:44.229Z,100938.00
2023-03-16T08:45:14.190Z,100936.00
2023-03-16T08:47:42.058Z,100938.00
2023-03-16T08:50:12.244Z,100929.00
2023-03-16T08:52:40.099Z,100936.00
2023-03-16T08:55:10.198Z,100943.00
2023-03-16T08:57:38.559Z,100940.00
2023-03-16T09:00:12.361Z,100944.00
2023-03-16T09:02:40.007Z,100933.00
2023-03-16T09:05:10.412Z,100932.00
2023-03-16T09:07:38.659Z,100937.00
2023-03-16T09:10:07.197Z,100943.00
2023-03-16T09:12:36.457Z,100943.00
2023-03-16T09:15:04.580Z,100940.00
2023-03-16T09:17:32.904Z,100945.00
2023-03-16T09:20:11.600Z,100941.00
2023-03-16T09:22:49.422Z,100947.00
2023-03-16T09:25:16.925Z,100949.00
2023-03-16T09:27:44.484Z,100940.00
2023-03-16T09:30:12.869Z,100951.00
2023-03-16T09:32:40.150Z,100947.00
2023-03-16T09:35:08.482Z,100939.00
2023-03-16T09:37:45.139Z,100945.00
2023-03-16T09:40:23.104Z,100946.00
2023-03-16T09:43:02.177Z,100939.00
2023-03-16T09:45:38.017Z,100940.00
2023-03-16T09:48:08.599Z,100932.00
2023-03-16T09:50:48.253Z,100938.00
2023-03-16T09:53:24.617Z,100937.00
2023-03-16T09:55:58.245Z,100930.00
2023-03-16T09:58:26.587Z,100928.00
2023-03-16T10:01:03.484Z,100934.00
2023-03-16T10:03:49.166Z,100933.00
2023-03-16T10:06:17.352Z,100937.00
2023-03-16T10:08:49.639Z,100933.00
2023-03-16T10:11:27.893Z,100932.00
2023-03-16T10:14:01.959Z,100934.00
2023-03-16T10:16:38.013Z,100930.00
2023-03-16T10:19:12.570Z,100934.00
2023-03-16T10:21:41.278Z,100932.00
2023-03-16T10:24:19.137Z,100929.00
2023-03-16T10:26:54.784Z,100924.00
2023-03-16T10:29:22.177Z,100925.00
2023-03-16T10:31:49.603Z,100927.00
2023-03-16T10:34:17.633Z,100928.00
2023-03-16T10:36:47.282Z,100937.00
2023-03-16T10:39:17.050Z,100926.00
2023-03-16T10:41:49.754Z,100918.00
2023-03-16T10:44:22.838Z,100924.00
2023-03-16T10:46:58.741Z,100915.00
2023-03-16T10:49:27.394Z,100924.00
2023-03-16T10:51:57.189Z,100915.00
2023-03-16T10:54:29.762Z,100926.00
2023-03-16T10:56:58.159Z,100915.00
2023-03-16T10:59:32.116Z,100916.00
2023-03-16T11:02:00.539Z,100911.00
2023-03-16T11:07:19.970Z,100907.00
2023-03-16T11:09:48.306Z,100896.00
2023-03-16T11:12:24.184Z,100902.00
2023-03-16T11:14:51.970Z,100891.00
2023-03-16T11:17:26.872Z,100903.00
2023-03-16T11:19:59.698Z,100887.00
2023-03-16T11:22:29.551Z,100881.00
2023-03-16T11:25:05.280Z,100883.00
2023-03-16T11:27:40.728Z,100879.00
2023-03-16T11:30:15.214Z,100884.00
2023-03-16T11:32:50.498Z,100891.00
2023-03-16T11:35:20.081Z,100881.00
2023-03-16T11:37:58.430Z,100879.00
2023-03-16T11:40:39.380Z,100879.00
2023-03-16T11:43:27.390Z,100868.00
2023-03-16T11:46:10.215Z,100866.00
2023-03-16T11:48:42.556Z,100870.00
2023-03-16T11:51:16.785Z,100865.00
2023-03-16T11:53:52.549Z,100859.00
2023-03-16T11:56:31.430Z,100857.00
2023-03-16T11:59:17.825Z,100853.00
2023-03-16T12:02:00.846Z,100858.00
2023-03-16T12:04:49.507Z,100848.00
2023-03-16T12:07:29.766Z,100853.00
2023-03-16T12:10:18.043Z,100843.00
2023-03-16T12:12:59.955Z,100838.00
2023-03-16T12:15:39.624Z,100843.00
2023-03-16T12:18:15.224Z,100836.00
2023-03-16T12:20:51.346Z,100827.00
2023-03-16T12:23:26.704Z,100820.00
2023-03-16T12:25:57.216Z,100815.00
2023-03-16T12:28:27.145Z,100820.00
2023-03-16T12:31:09.078Z,100816.00
2023-03-16T12:36:20.474Z,100820.00
2023-03-16T12:38:52.727Z,100812.00
2023-03-16T12:41:33.094Z,100806.00
2023-03-16T12:44:10.232Z,100811.00
2023-03-16T12:46:48.726Z,100817.00
2023-03-16T12:49:16.627Z,100812.00
2023-03-16T12:51:44.821Z,100816.00
2023-03-16T12:54:23.205Z,100797.00
2023-03-16T12:56:53.068Z,100802.00
2023-03-16T12:59:22.213Z,100804.00
2023-03-16T13:01:52.789Z,100794.00
2023-03-16T13:04:22.762Z,100794.00
2023-03-16T13:07:00.465Z,100795.00
2023-03-16T13:09:31.311Z,100787.00
2023-03-16T13:12:04.170Z,100781.00
2023-03-16T13:14:38.014Z,100775.00
2023-03-16T13:17:22.263Z,100770.00
2023-03-16T13:20:01.567Z,100775.00
2023-03-16T13:22:31.591Z,100777.00
2023-03-16T13:25:12.378Z,100762.00
2023-03-16T13:27:39.948Z,100764.00
2023-03-16T13:30:19.158Z,100752.00
2023-03-16T13:32:48.687Z,100755.00
2023-03-16T13:35:17.515Z,100760.00
2023-03-16T13:37:45.683Z,100758.00
2023-03-16T13:40:19.528Z,100768.00
2023-03-16T13:42:52.080Z,100764.00
2023-03-16T13:45:23.407Z,100755.00
2023-03-16T13:47:52.705Z,100762.00
2023-03-16T13:50:20.782Z,100770.00
2023-03-16T13:52:57.078Z,100751.00
2023-03-16T13:55:30.682Z,100749.00
2023-03-16T13:57:58.585Z,100747.00
2023-03-16T14:00:35.186Z,100743.00
2023-03-16T14:03:15.750Z,100744.00
2023-03-16T14:05:43.707Z,100724.00
2023-03-16T14:08:17.107Z,100737.00
2023-03-16T14:10:45.415Z,100740.00
2023-03-16T14:13:26.985Z,100729.00
2023-03-16T14:15:56.152Z,100737.00
2023-03-16T14:18:27.453Z,100730.00
2023-03-16T14:20:56.457Z,100725.00
2023-03-16T14:23:31.224Z,100720.00
2023-03-16T14:26:24.459Z,100732.00
2023-03-16T14:29:14.180Z,100729.00
2023-03-16T14:32:00.320Z,100728.00
2023-03-16T14:34:48.329Z,100727.00
2023-03-16T14:37:22.313Z,100719.00
2023-03-16T14:40:07.361Z,100721.00
2023-03-16T14:42:38.017Z,100722.00
2023-03-16T14:45:10.960Z,100721.00
2023-03-16T14:47:41.806Z,100727.00
2023-03-16T14:50:24.971Z,100723.00
2023-03-16T14:52:58.555Z,100721.00
2023-03-16T14:55:26.353Z,100713.00
2023-03-16T14:58:14.351Z,100709.00
2023-03-16T15:00:52.641Z,100701.00
2023-03-16T15:03:25.951Z,100708.00
2023-03-16T15:06:03.980Z,100701.00
2023-03-16T15:08:33.404Z,100699.00
2023-03-16T15:11:12.453Z,100687.00
2023-03-16T15:14:04.832Z,100690.00
2023-03-16T15:16:33.443Z,100698.00
2023-03-16T15:19:03.758Z,100691.00
2023-03-16T15:21:32.107Z,100689.00
2023-03-16T15:24:02.761Z,100681.00
2023-03-16T15:26:30.702Z,100674.00
2023-03-16T15:28:58.756Z,100684.00
2023-03-16T15:31:49.927Z,100685.00
2023-03-16T15:34:17.171Z,100687.00
2023-03-16T15:36:45.385Z,100689.00
2023-03-16T15:39:21.283Z,100687.00
2023-03-16T15:41:48.564Z,100679.00
2023-03-16T15:44:15.938Z,100672.00
2023-03-16T15:46:43.442Z,100669.00
2023-03-16T15:49:10.727Z,100656.00
2023-03-16T15:51:38.025Z,100652.00
2023-03-16T15:54:08.912Z,100662.00
2023-03-16T15:56:53.278Z,100664.00
2023-03-16T15:59:22.911Z,100660.00
2023-03-16T16:01:51.197Z,100668.00
2023-03-16T16:04:21.097Z,100668.00
2023-03-16T16:06:50.122Z,100673.00
2023-03-16T16:09:18.054Z,100664.00
2023-03-16T16:11:48.295Z,100676.00
2023-03-16T16:14:18.555Z,100677.00
2023-03-16T16:16:46.625Z,100671.00
2023-03-16T16:19:14.968Z,100685.00
2023-03-16T16:21:43.193Z,100673.00
2023-03-16T16:24:11.779Z,100690.00
2023-03-16T16:26:52.146Z,100693.00
2023-03-16T16:29:23.645Z,100688.00
2023-03-16T16:31:51.624Z,100691.00
2023-03-16T16:34:21.124Z,100685.00
2023-03-16T16:36:48.773Z,100689.00
2023-03-16T16:39:16.832Z,100687.00
2023-03-16T16:41:46.007Z,100697.00
2023-03-16T16:44:18.963Z,100687.00
2023-03-16T16:46:48.603Z,100674.00
2023-03-16T16:49:19.882Z,100683.00
2023-03-16T16:51:48.937Z,100677.00
2023-03-16T16:54:17.858Z,100666.00
2023-03-16T16:56:46.814Z,100660.00
2023-03-16T16:59:17.681Z,100664.00
2023-03-16T17:01:46.119Z,100667.00
2023-03-16T17:04:15.962Z,100665.00
2023-03-16T17:06:43.834Z,100662.00
2023-03-16T17:09:13.747Z,100656.00
2023-03-16T17:11:43.563Z,100661.00
2023-03-16T17:14:17.777Z,100654.00
2023-03-16T17:16:47.130Z,100659.00
2023-03-16T17:19:18.476Z,100665.00
2023-03-16T17:21:45.746Z,100671.00
2023-03-16T17:24:13.247Z,100674.00
2023-03-16T17:26:43.836Z,100680.00
2023-03-16T17:29:20.339Z,100675.00
2023-03-16T17:31:48.731Z,100681.00
2023-03-16T17:34:18.080Z,100677.00
2023-03-16T17:36:46.091Z,100672.00
2023-03-16T17:39:18.161Z,100669.00
2023-03-16T17:41:46.860Z,100672.00
2023-03-16T17:44:15.474Z,100675.00
2023-03-16T17:46:43.540Z,100666.00
2023-03-16T17:49:16.563Z,100667.00
2023-03-16T17:51:44.169Z,100655.00
2023-03-16T17:54:11.741Z,100662.00
2023-03-16T17:56:40.931Z,100668.00
2023-03-16T17:59:15.316Z,100672.00
2023-03-16T18:01:45.321Z,100661.00
2023-03-16T18:04:17.315Z,100651.00
2023-03-16T18:06:46.325Z,100650.00
2023-03-16T18:09:14.105Z,100641.00
2023-03-16T18:11:45.855Z,100655.00
2023-03-16T18:14:23.873Z,100656.00
2023-03-16T18:16:52.102Z,100656.00
2023-03-16T18:19:24.603Z,100650.00
2023-03-16T18:21:52.849Z,100643.00
2023-03-16T18:24:21.660Z,100632.00
2023-03-16T18:26:49.604Z,100647.00
2023-03-16T18:29:18.761Z,100644.00
2023-03-16T18:31:47.885Z,100641.00
2023-03-16T18:34:23.141Z,100645.00
2023-03-16T18:36:51.592Z,100639.00
2023-03-16T18:39:21.923Z,100639.00
2023-03-16T18:41:50.370Z,100637.00
2023-03-16T18:44:19.675Z,100636.00
2023-03-16T18:46:48.748Z,100627.00
2023-03-16T18:49:20.837Z,100633.00
2023-03-16T18:51:50.587Z,100626.00
2023-03-16T18:54:22.114Z,100637.00
2023-03-16T18:56:49.446Z,100635.00
2023-03-16T18:59:16.719Z,100635.00
2023-03-16T19:01:45.642Z,100636.00
2023-03-16T19:04:21.171Z,100638.00
2023-03-16T19:06:48.910Z,100641.00
2023-03-16T19:09:20.036Z,100630.00
2023-03-16T19:11:47.942Z,100635.00
2023-03-16T19:14:20.215Z,100624.00
2023-03-16T19:16:47.645Z,100627.00
2023-03-16T19:19:16.380Z,100615.00
2023-03-16T19:21:44.853Z,100606.00
2023-03-16T19:24:22.236Z,100606.00
2023-03-16T19:26:50.728Z,100608.00
2023-03-16T19:29:21.805Z,100612.00
2023-03-16T19:31:49.847Z,100605.00
2023-03-16T19:34:18.319Z,100603.00
2023-03-16T19:36:47.755Z,100607.00
2023-03-16T19:39:16.928Z,100600.00
2023-03-16T19:41:49.325Z,100606.00
2023-03-16T19:44:20.041Z,100607.00
2023-03-16T19:46:47.848Z,100616.00
2023-03-16T19:49:17.302Z,100613.00
2023-03-16T19:51:45.624Z,100616.00
2023-03-16T19:54:21.620Z,100609.00
2023-03-16T19:56:49.410Z,100618.00
2023-03-16T19:59:17.173Z,100630.00
2023-03-16T20:01:44.866Z,100623.00
2023-03-16T20:04:21.624Z,100625.00
2023-03-16T20:06:50.884Z,100622.00
2023-03-16T20:09:18.575Z,100624.00
2023-03-16T20:11:47.332Z,100605.00
2023-03-16T20:14:20.750Z,100604.00
2023-03-16T20:16:48.254Z,100599.00
2023-03-16T20:19:16.853Z,100609.00
2023-03-16T20:21:44.405Z,100599.00
2023-03-16T20:24:16.440Z,100606.00
2023-03-16T20:26:45.073Z,100602.00
2023-03-16T20:29:20.793Z,100603.00
2023-03-16T20:31:48.123Z,100601.00
2023-03-16T20:34:23.197Z,100610.00
2023-03-16T20:36:50.970Z,100594.00
2023-03-16T20:39:19.501Z,100586.00
2023-03-16T20:41:47.287Z,100582.00
2023-03-16T20:44:18.078Z,100580.00
2023-03-16T20:46:47.061Z,100586.00
2023-03-16T20:49:33.452Z,100578.00
2023-03-16T20:52:01.638Z,100578.00
2023-03-16T21:04:37.661Z,100568.00
2023-03-16T21:07:26.314Z,100572.00
2023-03-16T21:10:15.970Z,100570.00
2023-03-16T21:12:46.404Z,100567.00
2023-03-16T21:15:42.270Z,100559.00
2023-03-16T21:18:15.517Z,100563.00
2023-03-16T21:20:43.766Z,100559.00
2023-03-16T21:23:14.435Z,100563.00
2023-03-16T21:25:46.024Z,100552.00
2023-03-16T21:28:14.322Z,100538.00
2023-03-16T21:30:45.025Z,100543.00
2023-03-16T21:33:21.507Z,100542.00
2023-03-16T21:36:00.211Z,100542.00
2023-03-16T21:38:29.637Z,100549.00
2023-03-16T21:40:57.886Z,100555.00
2023-03-16T21:43:26.282Z,100553.00
2023-03-16T21:45:54.531Z,100545.00
2023-03-16T21:48:24.719Z,100538.00
2023-03-16T21:50:53.868Z,100532.00
2023-03-16T21:53:23.535Z,100537.00
2023-03-16T21:55:51.469Z,100541.00
2023-03-16T21:58:22.806Z,100526.00
2023-03-16T22:00:52.225Z,100533.00
2023-03-16T22:03:44.203Z,100525.00
2023-03-16T22:06:18.478Z,100517.00
2023-03-16T22:08:45.753Z,100510.00
2023-03-16T22:11:16.684Z,100509.00
2023-03-16T22:13:43.879Z,100508.00
2023-03-16T22:16:14.700Z,100508.00
2023-03-16T22:18:42.890Z,100511.00
2023-03-16T22:21:32.466Z,100501.00
2023-03-16T22:24:01.020Z,100501.00
2023-03-16T22:26:29.606Z,100492.00
2023-03-16T22:28:58.988Z,100499.00
2023-03-16T22:31:32.777Z,100488.00
2023-03-16T22:34:03.601Z,100490.00
2023-03-16T22:36:34.787Z,100487.00
2023-03-16T22:39:04.631Z,100477.00
2023-03-16T22:41:32.321Z,100476.00
2023-03-16T22:44:00.901Z,100479.00
2023-03-16T22:46:29.620Z,100470.00
2023-03-16T22:48:58.221Z,100469.00
2023-03-16T22:51:29.367Z,100458.00
2023-03-16T22:54:00.939Z,100460.00
2023-03-16T22:56:30.021Z,100460.00
2023-03-16T22:59:00.865Z,100466.00
2023-03-16T23:01:31.752Z,100456.00
2023-03-16T23:03:59.011Z,100457.00
2023-03-16T23:06:28.293Z,100461.00
2023-03-16T23:08:56.715Z,100457.00
2023-03-16T23:11:26.147Z,100462.00
2023-03-16T23:13:54.615Z,100464.00
2023-03-16T23:16:24.028Z,100460.00
2023-03-16T23:18:52.281Z,100455.00
2023-03-16T23:21:21.533Z,100460.00
2023-03-16T23:24:03.022Z,100457.00
2023-03-16T23:26:32.586Z,100465.00
2023-03-16T23:29:00.286Z,100446.00
2023-03-16T23:31:28.672Z,100449.00
2023-03-16T23:33:56.319Z,100442.00
2023-03-16T23:36:25.435Z,100438.00
2023-03-16T23:38:52.843Z,100438.00
2023-03-16T23:41:22.070Z,100434.00
2023-03-16T23:43:51.108Z,100435.00
2023-03-16T23:46:20.897Z,100434.00
2023-03-16T23:48:50.878Z,100425.00
2023-03-16T23:51:22.493Z,100430.00
2023-03-16T23:53:50.300Z,100430.00
2023-03-16T23:56:17.608Z,100430.00
2023-03-16T23:58:45.317Z,100438.00
